Time;durP1;ratioP1;P1;durP2;ratioP2;P2;SDS_P1;SDS_P2;PMS_P1;PMS_P2;Temp;Humidity;BMP_temperature;BMP_pressure;BME280_temperature;BME280_humidity;BME280_pressure;Samples;Min_cycle;Max_cycle;Signal;HPM_P1;HPM_P2
2023/06/08 00:00:44;;;;;;;106.78;52.22;;;;;;;;;;5013084;28;20445;-66
2023/06/08 00:03:12;;;;;;;60.03;45.00;;;;;;;;;;5005494;28;20049;-67
2023/06/08 00:05:43;;;;;;;59.10;45.53;;;;;;;;;;5011752;28;20458;-67
2023/06/08 00:08:11;;;;;;;89.15;50.20;;;;;;;;;;5012309;28;20490;-67
2023/06/08 00:10:40;;;;;;;62.53;48.92;;;;;;;;;;5011647;28;20128;-68
2023/06/08 00:13:07;;;;;;;64.80;40.97;;;;;;;;;;5011504;28;20049;-70
2023/06/08 00:15:33;;;;;;;73.28;40.60;;;;;;;;;;5012756;28;20050;-71
2023/06/08 00:18:01;;;;;;;59.72;34.97;;;;;;;;;;5031251;28;20049;-68
2023/06/08 00:20:28;;;;;;;51.72;36.40;;;;;;;;;;5029790;28;20663;-67
2023/06/08 00:22:56;;;;;;;49.03;34.65;;;;;;;;;;5011927;28;20069;-69
2023/06/08 00:25:23;;;;;;;74.22;35.60;;;;;;;;;;5011683;28;20037;-66
2023/06/08 00:27:50;;;;;;;108.78;41.10;;;;;;;;;;5030350;28;20053;-67
2023/06/08 00:30:16;;;;;;;41.70;30.75;;;;;;;;;;4996284;28;20645;-68
2023/06/08 00:32:43;;;;;;;49.42;32.80;;;;;;;;;;5014486;28;20529;-68
2023/06/08 00:35:10;;;;;;;52.50;29.45;;;;;;;;;;5034243;28;20364;-69
2023/06/08 00:37:36;;;;;;;65.88;31.65;;;;;;;;;;5034079;28;20479;-66
2023/06/08 00:40:06;;;;;;;64.30;32.15;;;;;;;;;;5016392;28;20408;-67
2023/06/08 00:42:34;;;;;;;49.25;27.75;;;;;;;;;;5016173;28;20569;-73
2023/06/08 00:45:00;;;;;;;62.30;28.73;;;;;;;;;;5026426;28;20040;-67
2023/06/08 00:47:27;;;;;;;52.83;28.65;;;;;;;;;;5033654;28;20080;-66
2023/06/08 00:49:54;;;;;;;55.30;27.92;;;;;;;;;;5030602;28;20127;-66
2023/06/08 00:52:21;;;;;;;62.50;28.27;;;;;;;;;;5015773;28;20483;-68
2023/06/08 00:54:48;;;;;;;71.55;25.40;;;;;;;;;;5015850;28;20045;-67
2023/06/08 00:57:16;;;;;;;35.95;21.17;;;;;;;;;;5016661;28;20498;-68
2023/06/08 00:59:44;;;;;;;55.15;22.98;;;;;;;;;;5033415;28;20050;-72
2023/06/08 01:02:10;;;;;;;57.55;22.05;;;;;;;;;;5013423;28;20447;-67
2023/06/08 01:04:39;;;;;;;52.25;19.73;;;;;;;;;;5014342;28;20133;-68
2023/06/08 01:07:14;;;;;;;78.68;22.98;;;;;;;;;;5024210;28;20042;-67
2023/06/08 01:09:49;;;;;;;68.20;20.10;;;;;;;;;;5015546;28;20076;-67
2023/06/08 01:12:19;;;;;;;54.28;20.30;;;;;;;;;;5029044;28;20495;-68
2023/06/08 01:14:45;;;;;;;52.78;19.95;;;;;;;;;;5015210;28;20044;-67
2023/06/08 01:17:15;;;;;;;57.67;19.55;;;;;;;;;;5000328;28;20049;-68
2023/06/08 01:19:56;;;;;;;55.35;21.88;;;;;;;;;;5029770;28;20525;-67
2023/06/08 01:22:44;;;;;;;51.03;20.25;;;;;;;;;;5015167;28;20058;-67
2023/06/08 01:25:11;;;;;;;58.08;21.55;;;;;;;;;;5007368;28;20041;-69
2023/06/08 01:27:38;;;;;;;82.07;22.85;;;;;;;;;;5015611;28;20060;-67
2023/06/08 01:30:06;;;;;;;51.70;22.98;;;;;;;;;;5015373;28;20041;-66
2023/06/08 01:32:34;;;;;;;59.78;26.40;;;;;;;;;;5016603;28;20049;-68
2023/06/08 01:35:01;;;;;;;62.38;28.23;;;;;;;;;;5033285;28;20048;-71
2023/06/08 01:37:47;;;;;;;56.17;25.35;;;;;;;;;;4998707;28;20081;-67
2023/06/08 01:40:40;;;;;;;68.22;28.65;;;;;;;;;;5031963;28;20044;-66
2023/06/08 01:43:08;;;;;;;33.20;24.63;;;;;;;;;;5005610;28;20513;-66
2023/06/08 01:45:38;;;;;;;63.25;29.65;;;;;;;;;;5015138;28;20145;-71
2023/06/08 01:48:05;;;;;;;50.88;25.10;;;;;;;;;;5021940;28;20045;-66
2023/06/08 01:50:33;;;;;;;50.72;26.15;;;;;;;;;;5011632;28;20653;-68
2023/06/08 01:53:01;;;;;;;62.53;28.58;;;;;;;;;;5014575;28;20065;-66
2023/06/08 01:55:27;;;;;;;37.95;23.23;;;;;;;;;;5032817;28;20085;-66
2023/06/08 01:57:55;;;;;;;56.72;25.63;;;;;;;;;;5032789;28;20045;-67
2023/06/08 02:12:41;;;;;;;105.93;29.00;;;;;;;;;;3243110;26;20407;-67
2023/06/08 02:15:08;;;;;;;58.25;24.23;;;;;;;;;;5031470;28;20057;-66
2023/06/08 02:17:35;;;;;;;59.15;25.23;;;;;;;;;;5047104;28;20071;-66
2023/06/08 02:20:06;;;;;;;45.25;21.52;;;;;;;;;;5044872;28;20045;-66
2023/06/08 02:22:35;;;;;;;39.38;21.73;;;;;;;;;;5031362;28;20048;-66
2023/06/08 02:25:02;;;;;;;49.00;23.67;;;;;;;;;;5029117;28;20041;-68
2023/06/08 02:27:29;;;;;;;96.55;26.08;;;;;;;;;;5030485;28;20049;-67
2023/06/08 02:29:56;;;;;;;47.08;23.27;;;;;;;;;;5043753;28;20444;-67
2023/06/08 02:32:23;;;;;;;66.97;24.70;;;;;;;;;;5043223;28;20068;-67
2023/06/08 02:34:55;;;;;;;47.58;23.25;;;;;;;;;;5043285;28;20128;-68
2023/06/08 02:37:25;;;;;;;41.65;21.02;;;;;;;;;;5016175;28;20056;-67
2023/06/08 02:39:52;;;;;;;66.80;27.48;;;;;;;;;;5033987;28;20053;-67
2023/06/08 02:42:19;;;;;;;39.97;20.50;;;;;;;;;;5029012;28;20530;-67
2023/06/08 02:44:47;;;;;;;68.57;22.35;;;;;;;;;;5040606;28;20570;-67
2023/06/08 02:47:15;;;;;;;54.60;19.50;;;;;;;;;;5028505;28;20406;-69
2023/06/08 02:49:42;;;;;;;56.85;21.98;;;;;;;;;;5043519;28;20097;-67
2023/06/08 02:52:09;;;;;;;40.63;19.88;;;;;;;;;;5044003;28;20132;-66
2023/06/08 02:54:36;;;;;;;42.97;20.10;;;;;;;;;;5042036;28;20395;-67
2023/06/08 02:57:03;;;;;;;49.92;22.48;;;;;;;;;;5040997;28;20055;-68
2023/06/08 02:59:36;;;;;;;41.95;22.42;;;;;;;;;;5033291;28;20601;-67
2023/06/08 03:02:04;;;;;;;31.75;21.02;;;;;;;;;;5032592;28;20041;-67
2023/06/08 03:04:32;;;;;;;45.60;22.23;;;;;;;;;;5025060;28;20402;-68
2023/06/08 03:07:01;;;;;;;40.38;21.65;;;;;;;;;;5026164;28;20509;-68
2023/06/08 03:09:31;;;;;;;51.50;26.80;;;;;;;;;;5039442;28;20080;-69
2023/06/08 03:12:02;;;;;;;36.05;28.45;;;;;;;;;;5031627;28;20654;-67
2023/06/08 03:14:30;;;;;;;52.08;31.33;;;;;;;;;;5030050;28;20052;-68
2023/06/08 03:17:02;;;;;;;51.50;26.42;;;;;;;;;;5028094;28;20414;-68
2023/06/08 03:19:34;;;;;;;55.60;27.02;;;;;;;;;;5030538;28;20041;-68
2023/06/08 03:22:04;;;;;;;51.97;29.02;;;;;;;;;;5042122;28;20032;-67
2023/06/08 03:24:35;;;;;;;55.03;30.42;;;;;;;;;;5008389;28;20046;-70
2023/06/08 03:27:03;;;;;;;39.83;26.05;;;;;;;;;;5030442;28;20080;-69
2023/06/08 03:29:31;;;;;;;43.50;28.33;;;;;;;;;;5028769;28;20068;-68
2023/06/08 03:32:01;;;;;;;43.30;26.30;;;;;;;;;;5040277;28;20047;-68
2023/06/08 03:34:30;;;;;;;35.83;27.08;;;;;;;;;;5030217;28;20076;-69
2023/06/08 03:37:02;;;;;;;50.10;29.65;;;;;;;;;;5024914;28;20041;-67
2023/06/08 03:39:31;;;;;;;45.53;27.73;;;;;;;;;;5040491;28;20048;-67
2023/06/08 03:41:58;;;;;;;38.88;32.90;;;;;;;;;;5023332;28;20121;-68
2023/06/08 03:44:28;;;;;;;41.10;30.20;;;;;;;;;;5030150;28;20049;-66
2023/06/08 03:46:56;;;;;;;43.72;25.10;;;;;;;;;;5025049;28;20487;-66
2023/06/08 03:49:24;;;;;;;48.63;24.05;;;;;;;;;;5043183;28;20045;-67
2023/06/08 03:51:52;;;;;;;60.03;27.95;;;;;;;;;;5024068;28;20072;-66
2023/06/08 03:54:19;;;;;;;39.53;21.42;;;;;;;;;;5041290;28;20053;-67
2023/06/08 03:56:46;;;;;;;44.10;25.10;;;;;;;;;;5043870;28;20041;-67
2023/06/08 03:59:12;;;;;;;38.30;24.42;;;;;;;;;;5040349;28;20123;-67
2023/06/08 04:01:45;;;;;;;60.38;25.15;;;;;;;;;;5024953;28;20045;-68
2023/06/08 04:04:13;;;;;;;46.47;21.90;;;;;;;;;;5025109;28;20468;-68
2023/06/08 04:06:40;;;;;;;64.80;21.10;;;;;;;;;;5025491;28;20100;-67
2023/06/08 04:09:08;;;;;;;33.47;15.25;;;;;;;;;;5011223;28;20144;-66
2023/06/08 04:11:35;;;;;;;46.95;14.40;;;;;;;;;;5048150;28;20038;-67
2023/06/08 04:14:02;;;;;;;36.47;10.98;;;;;;;;;;5044430;28;20080;-67
2023/06/08 04:16:29;;;;;;;45.38;10.45;;;;;;;;;;5033935;28;20620;-67
2023/06/08 04:18:58;;;;;;;63.08;10.93;;;;;;;;;;5045787;28;20049;-69
2023/06/08 04:21:27;;;;;;;32.90;9.73;;;;;;;;;;5039632;28;20103;-67
2023/06/08 04:24:00;;;;;;;23.92;7.13;;;;;;;;;;5043310;28;20058;-67
2023/06/08 04:26:30;;;;;;;23.88;6.72;;;;;;;;;;5033306;28;20057;-68
2023/06/08 04:28:57;;;;;;;32.60;6.90;;;;;;;;;;5044107;28;20388;-68
2023/06/08 04:31:28;;;;;;;31.40;7.63;;;;;;;;;;5028695;28;20045;-69
2023/06/08 04:33:55;;;;;;;46.17;8.48;;;;;;;;;;5043981;28;20140;-68
2023/06/08 04:36:22;;;;;;;18.38;5.70;;;;;;;;;;5042494;28;20100;-67
2023/06/08 04:38:50;;;;;;;14.90;5.90;;;;;;;;;;5026811;28;20095;-67
2023/06/08 04:41:19;;;;;;;33.10;7.07;;;;;;;;;;5045525;28;20052;-68
2023/06/08 04:43:49;;;;;;;42.80;8.43;;;;;;;;;;5033268;28;20128;-67
2023/06/08 04:46:19;;;;;;;46.85;8.77;;;;;;;;;;5030852;28;20041;-68
2023/06/08 04:48:48;;;;;;;62.47;9.15;;;;;;;;;;5045496;28;20495;-69
2023/06/08 04:51:15;;;;;;;27.77;6.20;;;;;;;;;;5033978;28;20068;-68
2023/06/08 04:53:42;;;;;;;89.32;10.98;;;;;;;;;;5044792;28;20041;-71
2023/06/08 04:56:18;;;;;;;32.97;7.43;;;;;;;;;;5027023;28;20421;-69
2023/06/08 04:58:47;;;;;;;27.92;6.40;;;;;;;;;;5041605;28;20080;-68
2023/06/08 05:01:13;;;;;;;37.30;8.10;;;;;;;;;;5045719;28;20047;-68
2023/06/08 05:03:40;;;;;;;76.95;12.75;;;;;;;;;;5044450;28;20611;-67
2023/06/08 05:06:07;;;;;;;41.58;11.25;;;;;;;;;;5029107;28;20041;-68
2023/06/08 05:08:34;;;;;;;28.00;10.55;;;;;;;;;;5043424;28;20041;-67
2023/06/08 05:11:01;;;;;;;31.95;14.63;;;;;;;;;;5025987;28;20049;-69
2023/06/08 05:13:27;;;;;;;36.97;18.42;;;;;;;;;;5045546;28;20060;-68
2023/06/08 05:15:58;;;;;;;74.10;21.05;;;;;;;;;;5044086;28;20517;-67
2023/06/08 05:18:25;;;;;;;21.95;14.27;;;;;;;;;;5029635;28;20041;-67
2023/06/08 05:20:52;;;;;;;36.28;16.83;;;;;;;;;;5043655;28;20037;-68
2023/06/08 05:23:18;;;;;;;32.55;20.92;;;;;;;;;;5047117;28;20043;-67
2023/06/08 05:25:45;;;;;;;33.25;15.93;;;;;;;;;;5045016;28;20041;-68
2023/06/08 05:28:12;;;;;;;52.63;22.98;;;;;;;;;;5035573;28;20445;-68
2023/06/08 05:30:38;;;;;;;27.23;21.00;;;;;;;;;;5045845;28;20060;-68
2023/06/08 05:33:05;;;;;;;35.55;23.08;;;;;;;;;;5042930;28;20378;-68
2023/06/08 05:35:32;;;;;;;37.00;32.22;;;;;;;;;;5044746;28;20541;-70
2023/06/08 05:37:59;;;;;;;36.40;31.05;;;;;;;;;;5045457;28;20041;-67
2023/06/08 05:40:25;;;;;;;80.68;36.05;;;;;;;;;;5033541;28;20151;-68
2023/06/08 05:42:52;;;;;;;60.55;28.67;;;;;;;;;;5046588;28;20033;-69
2023/06/08 05:45:19;;;;;;;42.33;28.67;;;;;;;;;;5047526;28;20049;-68
2023/06/08 05:47:45;;;;;;;45.53;26.77;;;;;;;;;;5044867;28;20486;-67
2023/06/08 05:50:12;;;;;;;44.35;27.48;;;;;;;;;;5047909;28;20474;-68
2023/06/08 05:52:39;;;;;;;39.63;28.15;;;;;;;;;;5043447;28;20076;-69
2023/06/08 05:55:06;;;;;;;44.03;31.20;;;;;;;;;;5042550;28;20047;-68
2023/06/08 05:57:37;;;;;;;52.15;28.42;;;;;;;;;;5043847;28;20426;-71
2023/06/08 06:00:09;;;;;;;54.95;36.55;;;;;;;;;;5043312;28;20057;-68
2023/06/08 06:02:38;;;;;;;40.58;33.88;;;;;;;;;;5026793;28;20131;-68
2023/06/08 06:05:08;;;;;;;46.30;32.63;;;;;;;;;;5017833;28;20049;-69
2023/06/08 06:07:35;;;;;;;48.17;37.58;;;;;;;;;;5051856;28;20469;-69
2023/06/08 06:10:03;;;;;;;82.47;43.17;;;;;;;;;;5050547;28;20109;-68
2023/06/08 06:12:30;;;;;;;44.58;34.72;;;;;;;;;;5034984;28;20091;-68
2023/06/08 06:14:57;;;;;;;53.15;39.75;;;;;;;;;;5050748;28;20521;-70
2023/06/08 06:17:25;;;;;;;55.25;40.17;;;;;;;;;;5049142;28;20041;-68
2023/06/08 06:19:51;;;;;;;55.08;36.53;;;;;;;;;;5033564;28;20053;-69
2023/06/08 06:22:20;;;;;;;65.25;35.42;;;;;;;;;;5051184;28;20083;-68
2023/06/08 06:24:47;;;;;;;97.28;45.78;;;;;;;;;;5041801;28;20051;-69
2023/06/08 06:27:14;;;;;;;99.10;35.83;;;;;;;;;;5034046;28;20061;-68
2023/06/08 06:29:41;;;;;;;57.42;32.05;;;;;;;;;;5041104;28;20065;-68
2023/06/08 06:32:08;;;;;;;53.58;35.72;;;;;;;;;;5043888;28;20414;-67
2023/06/08 06:34:37;;;;;;;55.70;34.22;;;;;;;;;;5029332;28;20494;-68
2023/06/08 06:37:03;;;;;;;63.75;46.40;;;;;;;;;;5043357;28;20037;-76
2023/06/08 06:39:30;;;;;;;48.67;43.42;;;;;;;;;;5041642;28;20063;-68
2023/06/08 06:41:57;;;;;;;79.28;70.80;;;;;;;;;;5045342;28;20064;-70
2023/06/08 06:44:28;;;;;;;243.63;224.15;;;;;;;;;;5009452;28;20100;-69
2023/06/08 06:46:55;;;;;;;223.43;204.18;;;;;;;;;;5028925;28;20053;-68
2023/06/08 06:49:22;;;;;;;224.98;206.90;;;;;;;;;;5023930;28;20049;-70
2023/06/08 06:51:49;;;;;;;201.80;180.60;;;;;;;;;;5041694;28;20049;-69
2023/06/08 06:54:16;;;;;;;177.25;161.38;;;;;;;;;;5043008;28;20048;-67
2023/06/08 06:56:43;;;;;;;167.57;149.57;;;;;;;;;;5042015;28;20132;-68
2023/06/08 06:59:10;;;;;;;142.43;129.93;;;;;;;;;;5039357;28;20108;-67
2023/06/08 07:01:37;;;;;;;139.48;127.15;;;;;;;;;;5047178;28;20099;-69
2023/06/08 07:04:04;;;;;;;142.68;130.18;;;;;;;;;;5026095;28;20394;-68
2023/06/08 07:06:32;;;;;;;132.52;121.90;;;;;;;;;;5033798;28;20486;-70
2023/06/08 07:08:59;;;;;;;134.50;123.78;;;;;;;;;;5012987;28;20070;-68
2023/06/08 07:11:26;;;;;;;136.52;124.80;;;;;;;;;;5033331;28;20508;-68
2023/06/08 07:13:52;;;;;;;139.00;127.40;;;;;;;;;;5023722;28;20050;-67
2023/06/08 07:16:21;;;;;;;138.90;125.18;;;;;;;;;;5042319;28;20115;-68
2023/06/08 07:18:52;;;;;;;160.18;125.32;;;;;;;;;;5051008;28;20057;-69
2023/06/08 07:21:21;;;;;;;127.32;115.78;;;;;;;;;;5044307;28;20080;-68
2023/06/08 07:23:52;;;;;;;126.13;115.45;;;;;;;;;;5045173;28;20056;-69
2023/06/08 07:26:39;;;;;;;111.78;102.30;;;;;;;;;;5042944;28;20068;-69
2023/06/08 07:29:06;;;;;;;124.47;113.43;;;;;;;;;;5027309;28;20033;-69
2023/06/08 07:31:34;;;;;;;110.75;100.75;;;;;;;;;;5039650;28;20052;-68
2023/06/08 07:34:01;;;;;;;120.10;108.47;;;;;;;;;;5041565;28;20037;-68
2023/06/08 07:36:28;;;;;;;109.80;99.65;;;;;;;;;;5023559;28;20045;-68
2023/06/08 07:38:56;;;;;;;111.70;100.57;;;;;;;;;;5032729;28;20049;-70
2023/06/08 07:41:26;;;;;;;111.45;101.25;;;;;;;;;;5029673;28;20045;-68
2023/06/08 07:43:53;;;;;;;94.32;85.70;;;;;;;;;;5045514;28;20040;-67
2023/06/08 07:46:20;;;;;;;88.28;79.13;;;;;;;;;;5032747;28;20047;-68
2023/06/08 07:48:47;;;;;;;121.78;94.28;;;;;;;;;;5039702;28;20073;-69
2023/06/08 07:51:14;;;;;;;85.22;77.43;;;;;;;;;;5045036;28;20049;-68
2023/06/08 07:53:41;;;;;;;75.50;60.63;;;;;;;;;;5041973;28;20042;-68
2023/06/08 07:56:07;;;;;;;70.38;64.03;;;;;;;;;;5024902;28;20079;-68
2023/06/08 07:58:34;;;;;;;69.40;62.75;;;;;;;;;;5042802;28;20045;-68
2023/06/08 08:01:01;;;;;;;83.90;65.50;;;;;;;;;;5042094;28;20099;-70
2023/06/08 08:03:28;;;;;;;78.65;52.63;;;;;;;;;;5041627;28;20046;-68
2023/06/08 08:05:55;;;;;;;57.40;44.15;;;;;;;;;;5046518;28;20044;-68
2023/06/08 08:08:22;;;;;;;54.63;36.92;;;;;;;;;;5045045;28;20072;-68
2023/06/08 08:10:49;;;;;;;41.75;36.17;;;;;;;;;;5024439;28;20048;-67
2023/06/08 08:13:16;;;;;;;49.78;40.70;;;;;;;;;;5041716;28;20061;-68
2023/06/08 08:15:42;;;;;;;60.60;38.03;;;;;;;;;;5041527;28;20052;-68
2023/06/08 08:18:09;;;;;;;50.85;37.67;;;;;;;;;;5039158;28;20053;-69
2023/06/08 08:20:36;;;;;;;62.85;42.42;;;;;;;;;;5045381;28;20065;-68
2023/06/08 08:23:03;;;;;;;73.60;44.00;;;;;;;;;;5029226;28;20230;-68
2023/06/08 08:25:29;;;;;;;59.35;38.28;;;;;;;;;;5046586;28;20049;-68
2023/06/08 08:27:56;;;;;;;111.20;50.90;;;;;;;;;;5048717;28;20057;-69
2023/06/08 08:30:23;;;;;;;48.03;36.10;;;;;;;;;;5041234;28;20108;-67
2023/06/08 08:32:50;;;;;;;62.63;35.28;;;;;;;;;;5041362;28;20046;-70
2023/06/08 08:35:17;;;;;;;39.20;31.20;;;;;;;;;;5029457;28;20053;-68
2023/06/08 08:37:43;;;;;;;72.18;44.00;;;;;;;;;;5041038;28;20549;-70
2023/06/08 08:40:11;;;;;;;74.80;45.80;;;;;;;;;;5027419;28;20047;-70
2023/06/08 08:42:42;;;;;;;67.95;35.80;;;;;;;;;;5041629;28;20045;-70
2023/06/08 08:45:13;;;;;;;92.53;56.70;;;;;;;;;;5030024;28;20073;-70
2023/06/08 08:47:44;;;;;;;48.80;34.20;;;;;;;;;;5028588;28;20053;-69
2023/06/08 08:50:16;;;;;;;50.38;36.17;;;;;;;;;;5021465;28;20570;-69
2023/06/08 08:52:45;;;;;;;118.15;35.42;;;;;;;;;;5013469;28;20049;-70
2023/06/08 08:55:12;;;;;;;110.30;100.40;;;;;;;;;;5043635;28;20043;-71
2023/06/08 08:58:00;;;;;;;111.28;82.25;;;;;;;;;;5044742;28;20045;-69
2023/06/08 09:00:27;;;;;;;105.72;77.75;;;;;;;;;;5043369;28;20046;-69
2023/06/08 09:02:54;;;;;;;72.63;65.88;;;;;;;;;;5051573;28;20037;-69
2023/06/08 09:05:21;;;;;;;68.82;63.13;;;;;;;;;;5024520;28;20578;-68
2023/06/08 09:07:52;;;;;;;80.32;60.10;;;;;;;;;;5048946;28;20044;-68
2023/06/08 09:10:20;;;;;;;64.25;55.08;;;;;;;;;;5027996;28;20073;-67
2023/06/08 09:12:48;;;;;;;110.00;58.53;;;;;;;;;;5025164;28;20049;-69
2023/06/08 09:15:28;;;;;;;57.13;51.22;;;;;;;;;;5044527;28;20049;-68
2023/06/08 09:17:55;;;;;;;91.30;52.97;;;;;;;;;;5045438;28;20450;-68
2023/06/08 09:20:27;;;;;;;57.67;48.50;;;;;;;;;;5022395;28;20068;-67
2023/06/08 09:22:55;;;;;;;256.70;235.00;;;;;;;;;;5017364;28;20524;-68
2023/06/08 09:25:42;;;;;;;297.13;275.13;;;;;;;;;;5019392;28;20486;-69
2023/06/08 09:28:28;;;;;;;292.75;270.15;;;;;;;;;;5027105;28;20733;-69
2023/06/08 09:30:57;;;;;;;285.42;258.95;;;;;;;;;;5026448;28;20141;-68
2023/06/08 09:33:25;;;;;;;260.98;241.95;;;;;;;;;;5035627;28;20095;-66
2023/06/08 09:35:58;;;;;;;252.13;232.45;;;;;;;;;;5043460;28;20037;-67
2023/06/08 09:38:29;;;;;;;248.40;229.63;;;;;;;;;;5045508;28;20076;-67
2023/06/08 09:41:11;;;;;;;235.48;217.65;;;;;;;;;;5045243;28;20049;-67
2023/06/08 09:43:38;;;;;;;239.37;220.87;;;;;;;;;;5052284;28;20040;-66
2023/06/08 09:46:05;;;;;;;238.43;218.45;;;;;;;;;;5032427;28;20055;-67
2023/06/08 09:48:33;;;;;;;229.32;210.35;;;;;;;;;;5051899;28;20033;-69
2023/06/08 09:51:00;;;;;;;227.70;209.00;;;;;;;;;;5034479;28;20102;-69
2023/06/08 09:53:28;;;;;;;218.50;201.27;;;;;;;;;;5051139;28;20037;-69
2023/06/08 09:55:57;;;;;;;217.18;199.30;;;;;;;;;;5033647;28;20049;-68
2023/06/08 09:58:27;;;;;;;237.88;217.05;;;;;;;;;;5033829;28;20055;-69
2023/06/08 10:00:58;;;;;;;220.20;199.10;;;;;;;;;;5035323;28;20051;-70
2023/06/08 10:03:30;;;;;;;225.45;207.38;;;;;;;;;;5034180;28;20490;-68
2023/06/08 10:05:57;;;;;;;221.50;204.03;;;;;;;;;;5034731;28;20045;-71
2023/06/08 10:08:26;;;;;;;206.40;189.43;;;;;;;;;;5052492;28;20049;-69
2023/06/08 10:10:54;;;;;;;204.90;188.63;;;;;;;;;;5020733;28;20045;-68
2023/06/08 10:13:22;;;;;;;217.05;199.43;;;;;;;;;;5037267;28;20096;-71
2023/06/08 10:15:49;;;;;;;210.20;191.32;;;;;;;;;;5051617;28;20048;-68
2023/06/08 10:18:16;;;;;;;205.82;189.77;;;;;;;;;;5053415;28;20045;-68
2023/06/08 10:20:43;;;;;;;207.20;190.80;;;;;;;;;;5039811;28;20139;-70
2023/06/08 10:23:11;;;;;;;204.40;188.65;;;;;;;;;;5040448;28;20102;-68
2023/06/08 10:25:38;;;;;;;204.30;186.88;;;;;;;;;;5040135;28;20045;-68
2023/06/08 10:28:06;;;;;;;202.05;184.73;;;;;;;;;;5055298;28;20037;-67
2023/06/08 10:30:41;;;;;;;198.27;183.00;;;;;;;;;;5052482;28;20052;-68
2023/06/08 10:33:08;;;;;;;205.13;188.57;;;;;;;;;;5052574;28;20045;-68
2023/06/08 10:35:36;;;;;;;203.48;187.90;;;;;;;;;;5031156;28;20052;-68
2023/06/08 10:38:15;;;;;;;206.43;190.32;;;;;;;;;;5053623;28;20049;-68
2023/06/08 10:40:42;;;;;;;203.68;188.57;;;;;;;;;;5050840;28;20095;-73
2023/06/08 10:43:09;;;;;;;223.90;204.13;;;;;;;;;;5041353;28;20052;-68
2023/06/08 10:45:57;;;;;;;220.57;198.80;;;;;;;;;;5054073;28;20037;-69
2023/06/08 10:48:34;;;;;;;199.88;184.07;;;;;;;;;;5039261;28;20053;-69
2023/06/08 10:51:03;;;;;;;204.77;188.90;;;;;;;;;;5056453;28;20045;-68
2023/06/08 10:53:55;;;;;;;223.23;205.75;;;;;;;;;;5037560;28;20041;-68
2023/06/08 10:56:30;;;;;;;213.70;195.50;;;;;;;;;;5054013;28;20051;-68
2023/06/08 10:58:58;;;;;;;212.57;195.13;;;;;;;;;;5035282;28;20074;-69
2023/06/08 11:01:30;;;;;;;248.15;228.07;;;;;;;;;;5037311;28;20045;-72
2023/06/08 11:03:58;;;;;;;167.95;151.32;;;;;;;;;;5051442;28;20069;-74
2023/06/08 11:06:29;;;;;;;159.70;147.27;;;;;;;;;;5035418;28;20064;-76
2023/06/08 11:08:56;;;;;;;205.82;188.68;;;;;;;;;;5052340;28;20506;-72
2023/06/08 11:11:22;;;;;;;194.05;178.70;;;;;;;;;;5035508;28;20699;-76
2023/06/08 11:13:51;;;;;;;206.95;190.00;;;;;;;;;;5035203;28;20068;-75
2023/06/08 11:16:18;;;;;;;203.13;186.15;;;;;;;;;;5037553;28;20044;-73
2023/06/08 11:18:45;;;;;;;197.93;183.32;;;;;;;;;;5038228;28;20045;-78
2023/06/08 11:21:14;;;;;;;197.18;181.48;;;;;;;;;;5034935;28;20045;-75
2023/06/08 11:23:41;;;;;;;194.13;178.68;;;;;;;;;;5045827;28;20045;-79
2023/06/08 11:26:11;;;;;;;186.77;172.32;;;;;;;;;;5049067;28;20045;-71
2023/06/08 11:28:37;;;;;;;185.73;171.80;;;;;;;;;;5048245;28;20040;-71
2023/06/08 11:31:05;;;;;;;194.77;177.70;;;;;;;;;;5046271;28;20053;-72
2023/06/08 11:33:33;;;;;;;190.82;176.57;;;;;;;;;;5043990;28;20049;-71
2023/06/08 11:35:59;;;;;;;185.57;170.45;;;;;;;;;;5044017;28;20041;-70
2023/06/08 11:38:26;;;;;;;194.68;179.40;;;;;;;;;;5044089;28;20040;-70
2023/06/08 11:40:57;;;;;;;198.02;179.88;;;;;;;;;;5044365;28;20111;-71
2023/06/08 11:43:24;;;;;;;200.75;180.95;;;;;;;;;;5045734;28;20073;-72
2023/06/08 11:45:56;;;;;;;208.05;186.40;;;;;;;;;;5042610;28;20053;-69
2023/06/08 11:48:23;;;;;;;188.25;172.35;;;;;;;;;;5040493;28;20056;-69
2023/06/08 11:50:50;;;;;;;179.80;166.88;;;;;;;;;;5046027;28;20111;-70
2023/06/08 11:53:22;;;;;;;188.95;172.18;;;;;;;;;;5052068;28;20111;-72
2023/06/08 11:55:54;;;;;;;182.70;167.82;;;;;;;;;;5030659;28;20050;-73
2023/06/08 11:58:25;;;;;;;182.60;167.32;;;;;;;;;;5030997;28;20041;-70
2023/06/08 12:01:02;;;;;;;193.52;175.27;;;;;;;;;;5033454;28;20414;-72
2023/06/08 12:03:34;;;;;;;175.38;161.35;;;;;;;;;;5049806;28;20043;-68
2023/06/08 12:06:01;;;;;;;175.10;159.38;;;;;;;;;;5049908;28;20049;-69
2023/06/08 12:08:28;;;;;;;164.15;150.90;;;;;;;;;;5047073;28;20033;-70
2023/06/08 12:10:54;;;;;;;163.93;150.25;;;;;;;;;;5040824;28;20073;-69
2023/06/08 12:13:22;;;;;;;166.95;152.35;;;;;;;;;;5042201;28;20060;-68
2023/06/08 12:15:50;;;;;;;169.93;154.77;;;;;;;;;;5043909;28;20072;-69
2023/06/08 12:18:17;;;;;;;165.57;152.10;;;;;;;;;;5013581;28;20045;-69
2023/06/08 12:20:46;;;;;;;173.85;159.63;;;;;;;;;;5027432;28;20446;-68
2023/06/08 12:23:14;;;;;;;163.52;149.88;;;;;;;;;;5021949;28;20080;-69
2023/06/08 12:25:41;;;;;;;168.25;154.48;;;;;;;;;;5016248;28;20068;-68
2023/06/08 12:28:18;;;;;;;164.82;150.55;;;;;;;;;;5051910;28;20048;-70
2023/06/08 12:30:48;;;;;;;170.13;155.75;;;;;;;;;;5044491;28;20037;-76
2023/06/08 12:33:19;;;;;;;164.55;151.18;;;;;;;;;;5037081;28;20041;-67
2023/06/08 12:35:49;;;;;;;160.00;145.20;;;;;;;;;;5053578;28;20040;-67
2023/06/08 12:38:16;;;;;;;154.20;141.55;;;;;;;;;;5037337;28;20409;-68
2023/06/08 12:40:47;;;;;;;157.13;144.35;;;;;;;;;;5036124;28;20052;-66
2023/06/08 12:43:18;;;;;;;164.32;149.60;;;;;;;;;;5046092;28;20052;-68
2023/06/08 12:45:45;;;;;;;172.13;157.23;;;;;;;;;;5045172;28;20048;-68
2023/06/08 12:48:13;;;;;;;163.30;149.55;;;;;;;;;;5034146;28;20046;-66
2023/06/08 12:50:40;;;;;;;161.77;144.70;;;;;;;;;;5043359;28;20135;-66
2023/06/08 12:53:07;;;;;;;155.60;141.90;;;;;;;;;;5045609;28;20072;-67
2023/06/08 12:55:34;;;;;;;170.70;155.32;;;;;;;;;;5010706;28;20034;-67
2023/06/08 12:58:00;;;;;;;172.82;148.05;;;;;;;;;;5043864;28;20080;-70
2023/06/08 13:00:28;;;;;;;172.13;155.98;;;;;;;;;;5042165;28;20099;-69
2023/06/08 13:02:57;;;;;;;169.45;155.75;;;;;;;;;;5047820;28;20045;-67
2023/06/08 13:05:25;;;;;;;169.40;155.85;;;;;;;;;;5043260;28;20041;-67
2023/06/08 13:07:52;;;;;;;167.52;152.55;;;;;;;;;;5042592;28;20040;-66
2023/06/08 13:10:19;;;;;;;172.30;157.35;;;;;;;;;;5027061;28;20047;-67
2023/06/08 13:12:48;;;;;;;170.65;157.80;;;;;;;;;;5033119;28;20068;-71
2023/06/08 13:15:15;;;;;;;160.98;147.20;;;;;;;;;;5044136;28;20052;-68
2023/06/08 13:17:42;;;;;;;163.48;150.63;;;;;;;;;;5046175;28;20041;-67
2023/06/08 13:20:09;;;;;;;159.93;147.13;;;;;;;;;;5042892;28;21294;-67
2023/06/08 13:22:36;;;;;;;160.52;147.75;;;;;;;;;;5045456;28;20052;-67
2023/06/08 13:25:03;;;;;;;183.25;163.27;;;;;;;;;;5044326;28;20489;-70
2023/06/08 13:27:30;;;;;;;179.60;157.32;;;;;;;;;;5044675;28;20057;-68
2023/06/08 13:29:56;;;;;;;161.15;146.48;;;;;;;;;;5044534;28;20053;-67
2023/06/08 13:32:24;;;;;;;142.05;130.18;;;;;;;;;;5027495;28;20455;-67
2023/06/08 13:34:51;;;;;;;146.25;134.50;;;;;;;;;;5044118;28;20443;-68
2023/06/08 13:37:18;;;;;;;154.70;141.27;;;;;;;;;;5044197;28;20546;-67
2023/06/08 13:39:45;;;;;;;151.63;139.20;;;;;;;;;;5057390;28;20586;-67
2023/06/08 13:42:11;;;;;;;155.13;141.43;;;;;;;;;;5046908;28;20449;-67
2023/06/08 13:44:40;;;;;;;144.25;133.18;;;;;;;;;;5045753;28;20057;-67
2023/06/08 13:47:07;;;;;;;152.68;139.93;;;;;;;;;;5024144;28;20499;-66
2023/06/08 13:49:34;;;;;;;155.77;142.13;;;;;;;;;;5045316;28;20061;-67
2023/06/08 13:52:01;;;;;;;167.30;149.85;;;;;;;;;;5042049;28;20107;-70
2023/06/08 13:54:28;;;;;;;156.02;142.77;;;;;;;;;;5043469;28;20139;-71
2023/06/08 13:56:54;;;;;;;165.85;153.30;;;;;;;;;;5050257;28;20056;-68
2023/06/08 13:59:21;;;;;;;326.60;189.80;;;;;;;;;;5045195;28;20386;-73
2023/06/08 14:01:48;;;;;;;211.43;192.85;;;;;;;;;;5044933;28;20133;-72
2023/06/08 14:04:15;;;;;;;604.35;554.97;;;;;;;;;;5017117;28;20471;-69
2023/06/08 14:06:44;;;;;;;529.63;488.13;;;;;;;;;;5044890;28;20406;-70
2023/06/08 14:09:11;;;;;;;517.60;476.83;;;;;;;;;;5044313;28;20044;-71
2023/06/08 14:11:37;;;;;;;518.70;474.77;;;;;;;;;;5042475;28;20051;-78
2023/06/08 14:14:04;;;;;;;475.25;435.15;;;;;;;;;;5032614;28;20575;-72
2023/06/08 14:16:31;;;;;;;471.05;434.25;;;;;;;;;;5042765;28;20577;-71
2023/06/08 14:18:57;;;;;;;481.15;441.98;;;;;;;;;;5041214;28;20045;-70
2023/06/08 14:21:25;;;;;;;461.98;426.17;;;;;;;;;;5025988;28;20053;-71
2023/06/08 14:23:51;;;;;;;457.13;417.13;;;;;;;;;;5043594;28;20048;-70
2023/06/08 14:26:22;;;;;;;449.98;414.83;;;;;;;;;;5046300;28;20036;-68